createdAt,value
2018-06-11T00:00:57.875Z,86
2018-06-11T00:02:00.260Z,86
2018-06-11T00:03:02.254Z,85
2018-06-11T00:04:04.247Z,85
2018-06-11T00:05:06.248Z,85
2018-06-11T00:06:08.256Z,85
2018-06-11T00:07:10.541Z,85
2018-06-11T00:08:12.530Z,85
2018-06-11T00:09:14.536Z,85
2018-06-11T00:10:16.824Z,86
2018-06-11T00:11:18.821Z,85
2018-06-11T00:12:21.102Z,85
2018-06-11T00:13:23.103Z,86
2018-06-11T00:14:25.120Z,86
2018-06-11T00:15:27.394Z,85
2018-06-11T00:16:29.394Z,85
2018-06-11T00:17:31.409Z,86
2018-06-11T00:18:33.788Z,84
2018-06-11T00:19:36.172Z,84
2018-06-11T00:20:38.173Z,84
2018-06-11T00:21:40.168Z,85
2018-06-11T00:22:42.171Z,84
2018-06-11T00:23:44.451Z,85
2018-06-11T00:24:46.729Z,84
2018-06-11T00:25:48.743Z,85
2018-06-11T00:26:51.027Z,85
2018-06-11T00:27:53.026Z,82
2018-06-11T00:28:55.025Z,83
2018-06-11T00:29:57.304Z,85
2018-06-11T00:30:59.297Z,84
2018-06-11T00:32:01.302Z,83
2018-06-11T00:33:03.299Z,83
2018-06-11T00:34:05.307Z,84
2018-06-11T00:35:07.312Z,84
2018-06-11T00:36:09.309Z,83
2018-06-11T00:37:11.304Z,82
2018-06-11T00:38:13.314Z,82
2018-06-11T00:39:15.310Z,83
2018-06-11T00:40:17.319Z,84
2018-06-11T00:41:19.317Z,83
2018-06-11T00:42:21.316Z,84
2018-06-11T00:43:23.316Z,83
2018-06-11T00:44:25.595Z,83
2018-06-11T00:45:27.877Z,84
2018-06-11T00:46:29.889Z,81
2018-06-11T00:47:31.873Z,82
2018-06-11T00:48:33.883Z,83
2018-06-11T00:49:35.878Z,82
2018-06-11T00:50:37.877Z,82
2018-06-11T00:51:39.880Z,82
2018-06-11T00:52:41.875Z,83
2018-06-11T00:53:43.883Z,82
2018-06-11T00:54:45.883Z,82
2018-06-11T00:55:48.250Z,83
2018-06-11T00:56:50.257Z,82
2018-06-11T00:57:52.643Z,81
2018-06-11T00:58:54.647Z,82
2018-06-11T00:59:56.914Z,80
2018-06-11T01:00:58.910Z,81
2018-06-11T01:02:00.911Z,81
2018-06-11T01:03:02.914Z,80
2018-06-11T01:04:04.919Z,81
2018-06-11T01:05:06.909Z,79
2018-06-11T01:06:09.217Z,81
2018-06-11T01:07:11.216Z,80
2018-06-11T01:08:13.206Z,82
2018-06-11T01:09:15.516Z,80
2018-06-11T01:10:17.525Z,82
2018-06-11T01:11:19.523Z,80
2018-06-11T01:12:21.906Z,81
2018-06-11T01:13:23.901Z,80
2018-06-11T01:14:26.574Z,80
2018-06-11T01:15:28.955Z,79
2018-06-11T01:16:31.239Z,80
2018-06-11T01:17:33.233Z,81
2018-06-11T01:18:35.232Z,79
2018-06-11T01:19:37.520Z,79
2018-06-11T01:20:39.808Z,80
2018-06-11T01:21:41.818Z,80
2018-06-11T01:22:43.817Z,79
2018-06-11T01:23:45.814Z,78
2018-06-11T01:24:47.808Z,79
2018-06-11T01:25:50.114Z,79
2018-06-11T01:26:52.392Z,80
2018-06-11T01:27:54.387Z,81
2018-06-11T01:28:56.789Z,81
2018-06-11T01:29:58.786Z,79
2018-06-11T01:31:01.058Z,79
2018-06-11T01:32:03.059Z,80
2018-06-11T01:33:05.335Z,80
2018-06-11T01:34:07.341Z,79
2018-06-11T01:35:09.345Z,78
2018-06-11T01:36:11.341Z,78
2018-06-11T01:37:13.356Z,78
2018-06-11T01:38:15.364Z,78
2018-06-11T01:39:17.643Z,79
2018-06-11T01:40:20.204Z,79
2018-06-11T01:41:22.214Z,80
2018-06-11T01:42:24.208Z,80
2018-06-11T01:43:26.203Z,78
2018-06-11T01:44:28.210Z,79
2018-06-11T01:45:30.489Z,79
2018-06-11T01:46:32.493Z,79
2018-06-11T01:47:34.481Z,82
2018-06-11T01:48:36.482Z,79
2018-06-11T01:49:38.484Z,79
2018-06-11T01:50:40.760Z,82
2018-06-11T01:51:42.760Z,82
2018-06-11T01:52:44.755Z,81
2018-06-11T01:53:46.760Z,79
2018-06-11T01:54:48.750Z,80
2018-06-11T01:55:50.752Z,81
2018-06-11T01:56:52.757Z,81
2018-06-11T01:57:54.762Z,80
2018-06-11T01:58:56.768Z,79
2018-06-11T01:59:58.764Z,79
2018-06-11T02:01:00.766Z,80
2018-06-11T02:02:03.628Z,79
2018-06-11T02:03:05.629Z,79
2018-06-11T02:04:07.635Z,80
2018-06-11T02:05:09.633Z,80
2018-06-11T02:06:11.936Z,80
2018-06-11T02:07:13.932Z,81
2018-06-11T02:08:15.928Z,79
2018-06-11T02:09:17.926Z,81
2018-06-11T02:10:19.923Z,79
2018-06-11T02:11:21.915Z,78
2018-06-11T02:12:23.907Z,78
2018-06-11T02:13:25.922Z,79
2018-06-11T02:14:27.915Z,79
2018-06-11T02:15:29.915Z,80
2018-06-11T02:16:31.914Z,78
2018-06-11T02:17:33.913Z,78
2018-06-11T02:18:35.917Z,81
2018-06-11T02:19:38.199Z,79
2018-06-11T02:20:40.460Z,79
2018-06-11T02:21:42.867Z,79
2018-06-11T02:22:44.862Z,79
2018-06-11T02:23:47.551Z,80
2018-06-11T02:24:49.543Z,79
2018-06-11T02:25:51.833Z,80
2018-06-11T02:26:53.827Z,79
2018-06-11T02:27:56.215Z,79
2018-06-11T02:28:58.217Z,80
2018-06-11T02:30:00.613Z,80
2018-06-11T02:31:03.273Z,79
2018-06-11T02:32:05.268Z,81
2018-06-11T02:33:07.272Z,81
2018-06-11T02:34:09.654Z,82
2018-06-11T02:35:11.642Z,79
2018-06-11T02:36:13.931Z,79
2018-06-11T02:37:16.213Z,81
2018-06-11T02:38:18.491Z,79
2018-06-11T02:39:20.489Z,80
2018-06-11T02:40:22.494Z,80
2018-06-11T02:41:24.502Z,79
2018-06-11T02:42:26.501Z,79
2018-06-11T02:43:28.500Z,78
2018-06-11T02:44:30.814Z,79
2018-06-11T02:45:33.085Z,79
2018-06-11T02:46:36.035Z,80
2018-06-11T02:47:38.377Z,81
2018-06-11T02:48:40.316Z,81
2018-06-11T02:49:42.321Z,81
2018-06-11T02:50:44.324Z,81
2018-06-11T02:51:46.603Z,78
2018-06-11T02:52:48.622Z,78
2018-06-11T02:53:50.892Z,78
2018-06-11T02:54:52.900Z,79
2018-06-11T02:55:54.899Z,78
2018-06-11T02:56:57.174Z,78
2018-06-11T02:57:59.176Z,78
2018-06-11T02:59:01.169Z,78
2018-06-11T03:00:03.841Z,77
2018-06-11T03:01:05.832Z,78
2018-06-11T03:02:07.821Z,77
2018-06-11T03:03:10.231Z,78
2018-06-11T03:04:12.228Z,78
2018-06-11T03:05:14.513Z,78
2018-06-11T03:06:16.519Z,77
2018-06-11T03:07:18.815Z,77
2018-06-11T03:08:20.815Z,78
2018-06-11T03:09:22.812Z,78
2018-06-11T03:10:25.097Z,77
2018-06-11T03:11:27.096Z,76
2018-06-11T03:12:29.094Z,75
2018-06-11T03:13:31.087Z,76
2018-06-11T03:14:33.077Z,77
2018-06-11T03:15:35.080Z,77
2018-06-11T03:16:37.357Z,76
2018-06-11T03:17:39.346Z,75
2018-06-11T03:18:41.347Z,76
2018-06-11T03:19:43.347Z,76
2018-06-11T03:20:45.339Z,76
2018-06-11T03:21:47.347Z,76
2018-06-11T03:22:49.345Z,76
2018-06-11T03:23:51.347Z,76
2018-06-11T03:24:53.333Z,76
2018-06-11T03:25:55.328Z,75
2018-06-11T03:26:57.620Z,76
2018-06-11T03:27:59.620Z,75
2018-06-11T03:29:01.893Z,74
2018-06-11T03:30:03.899Z,76
2018-06-11T03:31:05.897Z,75
2018-06-11T03:32:08.286Z,75
2018-06-11T03:33:10.866Z,75
2018-06-11T03:34:12.853Z,75
2018-06-11T03:35:14.855Z,76
2018-06-11T03:36:16.862Z,75
2018-06-11T03:37:18.855Z,77
2018-06-11T03:38:20.847Z,77
2018-06-11T03:39:23.126Z,77
2018-06-11T03:40:25.127Z,79
2018-06-11T03:41:27.122Z,78
2018-06-11T03:42:29.423Z,78
2018-06-11T03:43:31.463Z,75
2018-06-11T03:44:33.458Z,75
2018-06-11T03:45:35.733Z,76
2018-06-11T03:46:37.724Z,74
2018-06-11T03:47:39.729Z,75
2018-06-11T03:48:41.724Z,77
2018-06-11T03:49:43.727Z,78
2018-06-11T03:50:45.733Z,77
2018-06-11T03:51:47.725Z,75
2018-06-11T03:52:49.745Z,75
2018-06-11T03:53:52.076Z,75
2018-06-11T03:54:54.069Z,75
2018-06-11T03:55:56.075Z,76
2018-06-11T03:56:58.061Z,77
2018-06-11T03:58:00.359Z,76
2018-06-11T03:59:02.634Z,76
2018-06-11T04:00:04.636Z,76
2018-06-11T04:01:06.934Z,76
2018-06-11T04:02:08.932Z,77
2018-06-11T04:03:10.932Z,79
2018-06-11T04:04:12.925Z,79
2018-06-11T04:05:14.914Z,78
2018-06-11T04:06:17.202Z,79
2018-06-11T04:07:19.205Z,79
2018-06-11T04:08:21.199Z,80
2018-06-11T04:09:23.185Z,78
2018-06-11T04:10:25.186Z,78
2018-06-11T04:11:27.190Z,78
2018-06-11T04:12:29.478Z,78
2018-06-11T04:13:31.471Z,78
2018-06-11T04:14:33.463Z,77
2018-06-11T04:15:35.467Z,79
2018-06-11T04:16:37.834Z,78
2018-06-11T04:17:39.835Z,79
2018-06-11T04:18:42.138Z,79
2018-06-11T04:19:44.146Z,79
2018-06-11T04:20:46.435Z,78
2018-06-11T04:21:48.446Z,78
2018-06-11T04:22:50.442Z,78
2018-06-11T04:23:52.468Z,79
2018-06-11T04:24:54.750Z,80
2018-06-11T04:25:56.748Z,78
2018-06-11T04:26:59.125Z,79
2018-06-11T04:28:01.446Z,79
2018-06-11T04:29:03.428Z,79
2018-06-11T04:30:05.437Z,78
2018-06-11T04:31:07.427Z,79
2018-06-11T04:32:09.763Z,80
2018-06-11T04:33:12.057Z,80
2018-06-11T04:34:14.162Z,78
2018-06-11T04:35:16.161Z,79
2018-06-11T04:36:18.167Z,78
2018-06-11T04:37:20.172Z,77
2018-06-11T04:38:22.461Z,78
2018-06-11T04:39:24.456Z,77
2018-06-11T04:40:26.751Z,79
2018-06-11T04:41:29.209Z,79
2018-06-11T04:42:31.192Z,79
2018-06-11T04:43:33.844Z,78
2018-06-11T04:44:35.847Z,78
2018-06-11T04:45:38.516Z,75
2018-06-11T04:46:40.613Z,76
2018-06-11T04:47:42.616Z,78
2018-06-11T04:48:45.356Z,76
2018-06-11T04:49:47.368Z,75
2018-06-11T04:50:49.368Z,77
2018-06-11T04:51:51.459Z,77
2018-06-11T04:52:53.455Z,74
2018-06-11T04:53:55.455Z,75
2018-06-11T04:54:57.744Z,73
2018-06-11T04:55:59.750Z,74
2018-06-11T04:57:02.130Z,75
2018-06-11T04:58:04.129Z,74
2018-06-11T04:59:06.517Z,73
2018-06-11T05:00:08.517Z,72
2018-06-11T05:01:11.080Z,73
2018-06-11T05:02:13.079Z,73
2018-06-11T05:03:15.068Z,75
2018-06-11T05:04:17.079Z,76
2018-06-11T05:05:19.076Z,76
2018-06-11T05:06:21.078Z,74
2018-06-11T05:07:23.074Z,74
2018-06-11T05:08:25.070Z,75
2018-06-11T05:09:27.063Z,73
2018-06-11T05:10:29.348Z,72
2018-06-11T05:11:31.341Z,73
2018-06-11T05:12:33.638Z,73
2018-06-11T05:13:35.623Z,75
2018-06-11T05:14:37.629Z,73
2018-06-11T05:15:39.641Z,73
2018-06-11T05:16:41.907Z,73
2018-06-11T05:17:43.908Z,74
2018-06-11T05:18:45.906Z,75
2018-06-11T05:19:47.899Z,72
2018-06-11T05:20:49.905Z,73
2018-06-11T05:21:51.894Z,74
2018-06-11T05:22:53.875Z,74
2018-06-11T05:23:56.270Z,75
2018-06-11T05:24:58.938Z,72
2018-06-11T05:26:01.329Z,72
2018-06-11T05:27:03.995Z,71
2018-06-11T05:28:06.275Z,73
2018-06-11T05:29:08.271Z,75
2018-06-11T05:30:10.280Z,72
2018-06-11T05:31:12.269Z,74
2018-06-11T05:32:14.280Z,72
2018-06-11T05:33:16.281Z,74
2018-06-11T05:34:18.558Z,72
2018-06-11T05:35:20.556Z,71
2018-06-11T05:36:22.554Z,73
2018-06-11T05:37:24.940Z,71
2018-06-11T05:38:26.949Z,71
2018-06-11T05:39:28.940Z,72
2018-06-11T05:40:30.952Z,72
2018-06-11T05:41:32.947Z,74
2018-06-11T05:42:35.221Z,72
2018-06-11T05:43:37.221Z,72
2018-06-11T05:44:39.238Z,73
2018-06-11T05:45:41.502Z,71
2018-06-11T05:46:43.495Z,72
2018-06-11T05:47:45.492Z,70
2018-06-11T05:48:47.496Z,71
2018-06-11T05:49:49.504Z,70
2018-06-11T05:50:51.503Z,69
2018-06-11T05:51:53.508Z,69
2018-06-11T05:52:55.504Z,71
2018-06-11T05:53:58.346Z,71
2018-06-11T05:55:00.347Z,71
2018-06-11T05:56:02.662Z,72
2018-06-11T05:57:04.660Z,72
2018-06-11T05:58:06.666Z,70
2018-06-11T05:59:08.657Z,70
2018-06-11T06:00:10.659Z,72
2018-06-11T06:01:12.657Z,72
2018-06-11T06:02:14.666Z,75
2018-06-11T06:03:16.655Z,73
2018-06-11T06:04:18.654Z,74
2018-06-11T06:05:20.668Z,73
2018-06-11T06:06:22.661Z,73
2018-06-11T06:07:24.658Z,73
2018-06-11T06:08:26.657Z,71
2018-06-11T06:09:28.658Z,75
2018-06-11T06:10:31.325Z,70
2018-06-11T06:11:33.320Z,71
2018-06-11T06:12:35.319Z,73
2018-06-11T06:13:37.609Z,71
2018-06-11T06:14:39.884Z,73
2018-06-11T06:15:42.474Z,74
2018-06-11T06:16:44.793Z,73
2018-06-11T06:17:46.795Z,72
2018-06-11T06:18:48.797Z,72
2018-06-11T06:19:50.792Z,71
2018-06-11T06:20:52.791Z,72
2018-06-11T06:21:55.350Z,72
2018-06-11T06:22:57.346Z,74
2018-06-11T06:23:59.343Z,73
2018-06-11T06:25:01.628Z,73
2018-06-11T06:26:03.948Z,73
2018-06-11T06:27:06.323Z,72
2018-06-11T06:28:08.328Z,72
2018-06-11T06:29:10.323Z,74
2018-06-11T06:30:12.328Z,74
2018-06-11T06:31:14.323Z,72
2018-06-11T06:32:16.711Z,73
2018-06-11T06:33:18.715Z,72
2018-06-11T06:34:20.757Z,71
2018-06-11T06:35:23.468Z,72
2018-06-11T06:36:25.482Z,72
2018-06-11T06:37:27.486Z,72
2018-06-11T06:38:29.747Z,72
2018-06-11T06:39:32.037Z,73
2018-06-11T06:40:34.986Z,72
2018-06-11T06:41:36.913Z,74
2018-06-11T06:42:38.920Z,72
2018-06-11T06:43:40.920Z,73
2018-06-11T06:44:43.205Z,74
2018-06-11T06:45:45.217Z,72
2018-06-11T06:46:47.211Z,72
2018-06-11T06:47:49.216Z,72
2018-06-11T06:48:51.490Z,71
2018-06-11T06:49:53.505Z,72
2018-06-11T06:50:55.509Z,73
2018-06-11T06:51:58.480Z,71
2018-06-11T06:53:00.499Z,72
2018-06-11T06:54:02.516Z,73
2018-06-11T06:55:04.521Z,73
2018-06-11T06:56:06.572Z,73
2018-06-11T06:57:08.579Z,71
2018-06-11T06:58:10.600Z,71
2018-06-11T06:59:12.620Z,72
2018-06-11T07:00:14.986Z,73
2018-06-11T07:01:17.298Z,71
2018-06-11T07:02:19.291Z,72
2018-06-11T07:03:21.336Z,70
2018-06-11T07:04:23.355Z,70
2018-06-11T07:05:25.366Z,70
2018-06-11T07:06:27.439Z,69
2018-06-11T07:07:29.463Z,69
2018-06-11T07:08:31.473Z,70
2018-06-11T07:09:33.508Z,71
2018-06-11T07:10:35.509Z,69
2018-06-11T07:11:37.913Z,66
2018-06-11T07:12:39.917Z,69
2018-06-11T07:13:42.070Z,69
2018-06-11T07:14:44.132Z,67
2018-06-11T07:15:46.134Z,68
2018-06-11T07:16:48.255Z,66
2018-06-11T07:17:50.626Z,66
2018-06-11T07:18:52.628Z,67
2018-06-11T07:19:54.865Z,64
2018-06-11T07:20:56.878Z,63
2018-06-11T07:21:58.936Z,65
2018-06-11T07:23:00.942Z,65
2018-06-11T07:24:02.939Z,64
2018-06-11T07:25:04.957Z,67
2018-06-11T07:26:07.333Z,68
2018-06-11T07:27:09.771Z,67
2018-06-11T07:28:11.761Z,68
2018-06-11T07:29:14.047Z,67
2018-06-11T07:30:16.042Z,64
2018-06-11T07:31:18.055Z,66
2018-06-11T07:32:20.044Z,66
2018-06-11T07:33:22.067Z,66
2018-06-11T07:34:24.060Z,68
2018-06-11T07:35:26.068Z,68
2018-06-11T07:36:28.076Z,68
2018-06-11T07:37:30.355Z,67
2018-06-11T07:38:32.360Z,68
2018-06-11T07:39:34.376Z,66
2018-06-11T07:40:37.043Z,66
2018-06-11T07:41:39.436Z,66
2018-06-11T07:42:41.436Z,67
2018-06-11T07:43:43.465Z,67
2018-06-11T07:44:45.467Z,67
2018-06-11T07:45:47.735Z,69
2018-06-11T07:46:49.742Z,67
2018-06-11T07:47:51.738Z,68
2018-06-11T07:48:53.741Z,66
2018-06-11T07:49:55.744Z,66
2018-06-11T07:50:57.743Z,66
2018-06-11T07:51:59.753Z,68
2018-06-11T07:53:01.759Z,66
2018-06-11T07:54:03.744Z,69
2018-06-11T07:55:05.744Z,66
2018-06-11T07:56:07.754Z,65
2018-06-11T07:57:09.748Z,66
2018-06-11T07:58:12.032Z,66
2018-06-11T07:59:14.048Z,61
2018-06-11T08:00:16.477Z,61
2018-06-11T08:01:18.482Z,62
2018-06-11T08:02:20.855Z,61
2018-06-11T08:03:22.860Z,65
2018-06-11T08:04:24.863Z,63
2018-06-11T08:05:26.856Z,63
2018-06-11T08:06:28.864Z,60
2018-06-11T08:07:30.929Z,63
2018-06-11T08:08:32.856Z,66
2018-06-11T08:09:34.858Z,66
2018-06-11T08:10:36.863Z,61
2018-06-11T08:11:39.255Z,62
2018-06-11T08:12:41.256Z,62
2018-06-11T08:13:43.291Z,63
2018-06-11T08:14:45.653Z,61
2018-06-11T08:15:47.647Z,60
2018-06-11T08:16:49.930Z,61
2018-06-11T08:17:51.945Z,57
2018-06-11T08:18:54.226Z,61
2018-06-11T08:19:56.518Z,59
2018-06-11T08:20:58.517Z,57
2018-06-11T08:22:01.084Z,58
2018-06-11T08:23:03.091Z,60
2018-06-11T08:24:05.081Z,58
2018-06-11T08:25:07.092Z,56
2018-06-11T08:26:09.095Z,56
2018-06-11T08:27:11.098Z,60
2018-06-11T08:28:13.104Z,59
2018-06-11T08:29:15.096Z,59
2018-06-11T08:30:17.105Z,60
2018-06-11T08:31:19.108Z,59
2018-06-11T08:32:21.101Z,59
2018-06-11T08:33:23.408Z,60
2018-06-11T08:34:25.797Z,57
2018-06-11T08:35:27.806Z,61
2018-06-11T08:36:29.809Z,57
2018-06-11T08:37:32.197Z,58
2018-06-11T08:38:34.196Z,60
2018-06-11T08:39:36.207Z,57
2018-06-11T08:40:38.198Z,57
2018-06-11T08:41:40.215Z,58
2018-06-11T08:42:42.216Z,59
2018-06-11T08:43:44.216Z,57
2018-06-11T08:44:46.216Z,59
2018-06-11T08:45:48.210Z,59
2018-06-11T08:46:50.501Z,60
2018-06-11T08:47:52.887Z,59
2018-06-11T08:48:54.879Z,56
2018-06-11T08:49:57.173Z,56
2018-06-11T08:50:59.161Z,58
2018-06-11T08:52:01.176Z,59
2018-06-11T08:53:03.177Z,57
2018-06-11T08:54:05.180Z,56
2018-06-11T08:55:07.185Z,57
2018-06-11T08:56:09.194Z,57
2018-06-11T08:57:11.191Z,57
2018-06-11T08:58:13.210Z,54
2018-06-11T08:59:15.206Z,55
2018-06-11T09:00:17.493Z,58
2018-06-11T09:01:20.178Z,57
2018-06-11T09:02:22.566Z,56
2018-06-11T09:03:24.566Z,57
2018-06-11T09:04:26.570Z,60
2018-06-11T09:05:28.584Z,56
2018-06-11T09:06:30.580Z,56
2018-06-11T09:07:32.575Z,57
2018-06-11T09:08:34.583Z,59
2018-06-11T09:09:36.584Z,59
2018-06-11T09:10:38.591Z,57
2018-06-11T09:11:40.881Z,59
2018-06-11T09:13:40.664Z,61
2018-06-11T09:14:42.955Z,57
2018-06-11T09:15:45.358Z,58
2018-06-11T09:16:47.356Z,56
2018-06-11T09:17:49.353Z,51
2018-06-11T09:18:51.356Z,53
2018-06-11T09:19:53.370Z,54
2018-06-11T09:20:55.369Z,54
2018-06-11T09:21:57.377Z,55
2018-06-11T09:22:59.373Z,52
2018-06-11T09:24:01.384Z,54
2018-06-11T09:25:03.407Z,55
2018-06-11T09:26:05.758Z,52
2018-06-11T09:27:08.056Z,53
2018-06-11T09:28:10.065Z,54
2018-06-11T09:29:12.066Z,55
2018-06-11T09:30:15.041Z,55
2018-06-11T09:31:17.041Z,55
2018-06-11T09:32:19.055Z,54
2018-06-11T09:33:21.063Z,57
2018-06-11T09:34:23.453Z,57
2018-06-11T09:35:25.458Z,53
2018-06-11T09:36:27.464Z,53
2018-06-11T09:37:29.457Z,54
2018-06-11T09:38:31.889Z,56
2018-06-11T09:39:33.883Z,55
2018-06-11T09:40:35.892Z,58
2018-06-11T09:41:37.900Z,54
2018-06-11T09:42:40.186Z,52
2018-06-11T09:43:42.257Z,53
2018-06-11T09:44:44.192Z,52
2018-06-11T09:45:46.198Z,53
2018-06-11T09:46:48.501Z,52
2018-06-11T09:47:50.795Z,52
2018-06-11T09:48:52.798Z,53
2018-06-11T09:49:55.080Z,52
2018-06-11T09:50:58.056Z,52
2018-06-11T09:52:00.054Z,55
2018-06-11T09:53:02.346Z,56
2018-06-11T09:54:04.352Z,53
2018-06-11T09:55:06.351Z,52
2018-06-11T09:56:08.649Z,57
2018-06-11T09:57:10.652Z,54
2018-06-11T09:58:12.659Z,55
2018-06-11T09:59:14.666Z,54
2018-06-11T10:00:16.666Z,53
2018-06-11T10:01:18.668Z,56
2018-06-11T10:02:20.956Z,55
2018-06-11T10:03:22.972Z,54
2018-06-11T10:04:25.262Z,53
2018-06-11T10:05:27.539Z,52
2018-06-11T10:06:29.550Z,50
2018-06-11T10:07:31.554Z,51
2018-06-11T10:08:33.563Z,51
2018-06-11T10:09:35.867Z,49
2018-06-11T10:10:38.266Z,53
2018-06-11T10:11:40.546Z,50
2018-06-11T10:12:42.540Z,51
2018-06-11T10:13:44.545Z,50
2018-06-11T10:14:46.557Z,49
2018-06-11T10:15:48.568Z,48
2018-06-11T10:16:50.955Z,48
2018-06-11T10:17:53.255Z,50
2018-06-11T10:18:55.646Z,52
2018-06-11T10:19:57.639Z,54
2018-06-11T10:20:59.650Z,52
2018-06-11T10:22:01.668Z,52
2018-06-11T10:23:03.971Z,54
2018-06-11T10:24:06.263Z,49
2018-06-11T10:25:08.655Z,51
2018-06-11T10:26:10.660Z,49
2018-06-11T10:27:12.674Z,46
2018-06-11T10:28:14.964Z,48
2018-06-11T10:29:16.963Z,51
2018-06-11T10:30:18.969Z,51
2018-06-11T10:31:21.364Z,47
2018-06-11T10:32:23.423Z,49
2018-06-11T10:33:25.458Z,49
2018-06-11T10:34:27.798Z,48
2018-06-11T10:35:29.846Z,50
2018-06-11T10:36:31.910Z,48
2018-06-11T10:37:33.959Z,48
2018-06-11T10:38:36.005Z,48
2018-06-11T10:39:38.051Z,51
2018-06-11T10:40:40.146Z,49
2018-06-11T10:41:42.593Z,48
2018-06-11T10:42:44.655Z,46
2018-06-11T10:43:46.755Z,45
2018-06-11T10:44:48.819Z,47
2018-06-11T10:45:50.891Z,47
2018-06-11T10:46:52.967Z,48
2018-06-11T10:47:55.657Z,47
2018-06-11T10:48:57.722Z,48
2018-06-11T10:49:59.786Z,47
2018-06-11T10:51:01.835Z,46
2018-06-11T10:52:03.878Z,44
2018-06-11T10:53:05.939Z,44
2018-06-11T10:54:08.371Z,46
2018-06-11T10:55:10.403Z,45
2018-06-11T10:56:12.414Z,46
2018-06-11T10:57:15.106Z,44
2018-06-11T10:58:17.128Z,48
2018-06-11T10:59:19.414Z,48
2018-06-11T11:00:21.413Z,50
2018-06-11T11:01:23.426Z,47
2018-06-11T11:02:25.445Z,50
2018-06-11T11:03:27.837Z,47
2018-06-11T11:04:29.901Z,47
2018-06-11T11:05:32.129Z,47
2018-06-11T11:06:34.145Z,49
2018-06-11T11:07:36.152Z,47
2018-06-11T11:08:38.161Z,47
2018-06-11T11:09:40.164Z,49
2018-06-11T11:10:42.168Z,49
2018-06-11T11:11:44.192Z,47
2018-06-11T11:12:46.613Z,48
2018-06-11T11:13:48.632Z,49
2018-06-11T11:14:50.638Z,48
2018-06-11T11:15:52.649Z,49
2018-06-11T11:16:54.666Z,46
2018-06-11T11:17:56.666Z,45
2018-06-11T11:18:58.696Z,47
2018-06-11T11:20:00.980Z,49
2018-06-11T11:21:02.973Z,46
2018-06-11T11:22:04.987Z,46
2018-06-11T11:23:07.306Z,47
2018-06-11T11:24:09.694Z,50
2018-06-11T11:25:11.709Z,45
2018-06-11T11:26:14.667Z,45
2018-06-11T11:27:16.683Z,47
2018-06-11T11:28:18.965Z,43
2018-06-11T11:29:20.977Z,44
2018-06-11T11:30:22.978Z,43
2018-06-11T11:31:25.658Z,44
2018-06-11T11:32:27.956Z,44
2018-06-11T11:33:30.364Z,46
2018-06-11T11:34:32.641Z,45
2018-06-11T11:35:34.669Z,44
2018-06-11T11:36:36.949Z,43
2018-06-11T11:37:39.347Z,44
2018-06-11T11:38:41.363Z,44
2018-06-11T11:39:43.383Z,46
2018-06-11T11:40:45.392Z,45
2018-06-11T11:41:47.405Z,46
2018-06-11T11:42:49.419Z,46
2018-06-11T11:43:51.435Z,49
2018-06-11T11:44:53.435Z,44
2018-06-11T11:45:55.452Z,42
2018-06-11T11:46:57.739Z,43
2018-06-11T11:47:59.744Z,41
2018-06-11T11:49:02.043Z,42
2018-06-11T11:50:04.047Z,44
2018-06-11T11:51:06.071Z,41
2018-06-11T11:52:08.350Z,42
2018-06-11T11:53:10.358Z,40
2018-06-11T11:54:12.383Z,42
2018-06-11T11:55:14.384Z,41
2018-06-11T11:56:16.400Z,43
2018-06-11T11:57:18.410Z,42
2018-06-11T11:58:20.749Z,41
2018-06-11T11:59:23.182Z,42
2018-06-11T12:00:25.576Z,38
2018-06-11T12:01:27.988Z,40
2018-06-11T12:02:30.004Z,41
2018-06-11T12:03:33.931Z,40
2018-06-11T12:04:38.182Z,39
2018-06-11T12:05:43.140Z,41
2018-06-11T12:06:47.920Z,41
2018-06-11T12:07:52.078Z,40
2018-06-11T12:08:56.842Z,41
2018-06-11T12:10:02.242Z,41
2018-06-11T12:11:07.873Z,43
2018-06-11T12:12:12.665Z,46
2018-06-11T12:13:18.514Z,41
2018-06-11T12:14:22.482Z,40
2018-06-11T12:15:27.149Z,41
2018-06-11T12:16:31.514Z,41
2018-06-11T12:17:35.255Z,40
2018-06-11T12:18:39.171Z,43
2018-06-11T12:19:42.951Z,40
2018-06-11T12:20:47.603Z,41
2018-06-11T12:21:52.574Z,40
2018-06-11T12:22:55.867Z,41
2018-06-11T12:24:00.335Z,43
2018-06-11T12:25:05.586Z,40
2018-06-11T12:26:11.578Z,40
2018-06-11T12:27:15.129Z,40
2018-06-11T12:28:19.047Z,40
2018-06-11T12:29:21.376Z,36
2018-06-11T12:30:25.457Z,40
2018-06-11T12:31:29.649Z,41
2018-06-11T12:32:32.518Z,41
2018-06-11T12:33:35.036Z,41
2018-06-11T12:34:38.058Z,40
2018-06-11T12:35:41.831Z,40
2018-06-11T12:36:46.041Z,40
2018-06-11T12:37:49.180Z,39
2018-06-11T12:38:53.314Z,41
2018-06-11T12:39:57.434Z,43
2018-06-11T12:41:01.810Z,42
2018-06-11T12:42:05.846Z,40
2018-06-11T12:43:09.833Z,41
2018-06-11T12:44:14.673Z,39
2018-06-11T12:45:19.296Z,41
2018-06-11T12:46:23.100Z,39
2018-06-11T12:47:26.473Z,40
2018-06-11T12:48:29.550Z,41
2018-06-11T12:49:34.393Z,44
2018-06-11T12:50:39.978Z,43
2018-06-11T12:51:45.805Z,42
2018-06-11T12:52:50.380Z,39
2018-06-11T12:53:56.675Z,40
2018-06-11T12:54:59.400Z,41
2018-06-11T12:56:02.110Z,40
2018-06-11T12:57:06.304Z,42
2018-06-11T12:58:09.906Z,39
2018-06-11T12:59:14.395Z,40
2018-06-11T13:00:19.340Z,42
2018-06-11T13:01:23.505Z,39
2018-06-11T13:02:29.431Z,38
2018-06-11T13:03:34.024Z,39
2018-06-11T13:04:37.932Z,40
2018-06-11T13:05:41.776Z,39
2018-06-11T13:06:45.402Z,40
2018-06-11T13:07:48.723Z,40
2018-06-11T13:08:53.250Z,41
2018-06-11T13:09:56.565Z,37
2018-06-11T13:10:59.085Z,40
2018-06-11T13:12:01.142Z,40
2018-06-11T13:13:03.847Z,38
2018-06-11T13:14:05.961Z,40
2018-06-11T13:15:07.960Z,41
2018-06-11T13:16:10.025Z,41
2018-06-11T13:17:12.090Z,37
2018-06-11T13:18:14.130Z,36
2018-06-11T13:19:16.205Z,39
2018-06-11T13:20:18.535Z,40
2018-06-11T13:21:20.671Z,40
2018-06-11T13:22:22.778Z,39
2018-06-11T13:23:24.828Z,43
2018-06-11T13:24:26.894Z,39
2018-06-11T13:25:28.954Z,39
2018-06-11T13:26:31.004Z,39
2018-06-11T13:27:33.095Z,38
2018-06-11T13:28:35.128Z,36
2018-06-11T13:29:37.187Z,39
2018-06-11T13:30:39.309Z,39
2018-06-11T13:31:41.304Z,41
2018-06-11T13:32:43.359Z,39
2018-06-11T13:33:45.793Z,39
2018-06-11T13:34:48.140Z,38
2018-06-11T13:35:50.208Z,39
2018-06-11T13:36:52.288Z,38
2018-06-11T13:37:54.336Z,39
2018-06-11T13:38:56.394Z,39
2018-06-11T13:39:58.503Z,39
2018-06-11T13:41:00.583Z,39
2018-06-11T13:42:03.026Z,39
2018-06-11T13:43:05.408Z,38
2018-06-11T13:44:07.470Z,38
2018-06-11T13:45:10.359Z,41
2018-06-11T13:46:12.416Z,40
2018-06-11T13:47:14.470Z,39
2018-06-11T13:48:16.805Z,40
2018-06-11T13:49:18.943Z,40
2018-06-11T13:50:20.991Z,39
2018-06-11T13:51:23.051Z,42
2018-06-11T13:52:25.404Z,41
2018-06-11T13:53:27.750Z,38
2018-06-11T13:54:29.812Z,38
2018-06-11T13:55:31.869Z,39
2018-06-11T13:56:34.213Z,40
2018-06-11T13:57:36.273Z,41
2018-06-11T13:58:38.330Z,41
2018-06-11T13:59:40.590Z,43
2018-06-11T14:00:43.380Z,43
2018-06-11T14:01:45.816Z,40
2018-06-11T14:02:47.872Z,42
2018-06-11T14:03:49.927Z,41
2018-06-11T14:04:51.984Z,43
2018-06-11T14:05:54.427Z,43
2018-06-11T14:06:56.479Z,40
2018-06-11T14:07:58.539Z,42
2018-06-11T14:09:00.591Z,40
2018-06-11T14:10:02.651Z,42
2018-06-11T14:11:05.007Z,42
2018-06-11T14:12:07.351Z,41
2018-06-11T14:13:09.411Z,43
2018-06-11T14:14:11.467Z,43
2018-06-11T14:15:13.518Z,41
2018-06-11T14:16:15.966Z,40
2018-06-11T14:17:18.027Z,41
2018-06-11T14:18:20.464Z,43
2018-06-11T14:19:23.069Z,42
2018-06-11T14:20:25.054Z,41
2018-06-11T14:21:27.118Z,41
2018-06-11T14:22:29.170Z,42
2018-06-11T14:23:31.231Z,42
2018-06-11T14:24:33.292Z,41
2018-06-11T14:25:35.349Z,40
2018-06-11T14:26:38.082Z,40
2018-06-11T14:27:40.133Z,42
2018-06-11T14:28:42.212Z,40
2018-06-11T14:29:45.035Z,39
2018-06-11T14:30:47.392Z,40
2018-06-11T14:31:49.739Z,42
2018-06-11T14:32:51.794Z,41
2018-06-11T14:33:53.848Z,40
2018-06-11T14:34:55.913Z,40
2018-06-11T14:35:57.972Z,38
2018-06-11T14:37:00.034Z,39
2018-06-11T14:38:02.380Z,38
2018-06-11T14:39:04.722Z,40
2018-06-11T14:40:06.793Z,38
2018-06-11T14:41:08.853Z,41
2018-06-11T14:42:11.217Z,39
2018-06-11T14:43:13.270Z,39
2018-06-11T14:44:15.710Z,40
2018-06-11T14:45:18.056Z,38
2018-06-11T14:46:20.115Z,41
2018-06-11T14:47:22.213Z,39
2018-06-11T14:48:24.279Z,39
2018-06-11T14:49:26.995Z,39